Map

Track Data

SID SEASON NUMBER BASIN SUBBASIN NAME ISO_TIME NATURE LAT LON WMO_WIND WMO_PRES WMO_AGENCY TRACK_TYPE DIST2LAND LANDFALL IFLAG USA_AGENCY USA_ATCF_ID USA_LAT USA_LON USA_RECORD USA_STATUS USA_WIND USA_PRES USA_SSHS USA_R34_NE USA_R34_SE USA_R34_SW USA_R34_NW USA_R50_NE USA_R50_SE USA_R50_SW USA_R50_NW USA_R64_NE USA_R64_SE USA_R64_SW USA_R64_NW USA_POCI USA_ROCI USA_RMW USA_EYE TOKYO_LAT TOKYO_LON TOKYO_GRADE TOKYO_WIND TOKYO_PRES TOKYO_R50_DIR TOKYO_R50_LONG TOKYO_R50_SHORT TOKYO_R30_DIR TOKYO_R30_LONG TOKYO_R30_SHORT TOKYO_LAND CMA_LAT CMA_LON CMA_CAT CMA_WIND CMA_PRES HKO_LAT HKO_LON HKO_CAT HKO_WIND HKO_PRES NEWDELHI_LAT NEWDELHI_LON NEWDELHI_GRADE NEWDELHI_WIND NEWDELHI_PRES NEWDELHI_CI NEWDELHI_DP NEWDELHI_POCI REUNION_LAT REUNION_LON REUNION_TYPE REUNION_WIND REUNION_PRES REUNION_TNUM REUNION_CI REUNION_RMW REUNION_R34_NE REUNION_R34_SE REUNION_R34_SW REUNION_R34_NW REUNION_R50_NE REUNION_R50_SE REUNION_R50_SW REUNION_R50_NW REUNION_R64_NE REUNION_R64_SE REUNION_R64_SW REUNION_R64_NW BOM_LAT BOM_LON BOM_TYPE BOM_WIND BOM_PRES BOM_TNUM BOM_CI BOM_RMW BOM_R34_NE BOM_R34_SE BOM_R34_SW BOM_R34_NW BOM_R50_NE BOM_R50_SE BOM_R50_SW BOM_R50_NW BOM_R64_NE BOM_R64_SE BOM_R64_SW BOM_R64_NW BOM_ROCI BOM_POCI BOM_EYE BOM_POS_METHOD BOM_PRES_METHOD NADI_LAT NADI_LON NADI_CAT NADI_WIND NADI_PRES WELLINGTON_LAT WELLINGTON_LON WELLINGTON_WIND WELLINGTON_PRES DS824_LAT DS824_LON DS824_STAGE DS824_WIND DS824_PRES TD9636_LAT TD9636_LON TD9636_STAGE TD9636_WIND TD9636_PRES TD9635_LAT TD9635_LON TD9635_WIND TD9635_PRES TD9635_ROCI NEUMANN_LAT NEUMANN_LON NEUMANN_CLASS NEUMANN_WIND NEUMANN_PRES MLC_LAT MLC_LON MLC_CLASS MLC_WIND MLC_PRES USA_GUST BOM_GUST BOM_GUST_PER REUNION_GUST REUNION_GUST_PER USA_SEAHGT USA_SEARAD_NE USA_SEARAD_SE USA_SEARAD_SW USA_SEARAD_NW STORM_SPEED STORM_DIR
1910326N13129 1910 55 WP MM NOT_NAMED 1910-11-21 16:00:00 NR 12.8000 128.500 main 332 230 __________O___ -1 12.8000 128.500 7 37 293
1910326N13129 1910 55 WP MM NOT_NAMED 1910-11-21 18:00:00 NR 13.2728 127.345 main 230 140 __________P___ -1 13.2728 127.345 7 36 292
1910326N13129 1910 55 WP MM NOT_NAMED 1910-11-21 21:00:00 NR 13.9436 125.657 main 140 44 __________P___ -1 13.9436 125.657 7 34 292
1910326N13129 1910 55 WP MM NOT_NAMED 1910-11-22 00:00:00 NR 14.5281 124.104 main 55 68 __________P___ -1 14.5281 124.104 7 30 290
1910326N13129 1910 55 WP MM NOT_NAMED 1910-11-22 03:00:00 NR 14.9837 122.777 main 89 89 __________P___ -1 14.9837 122.777 7 26 289
1910326N13129 1910 55 WP MM NOT_NAMED 1910-11-22 04:00:00 NR 15.1000 122.400 main 87 39 __________O___ -1 15.1000 122.400 4 21 286
1910326N13129 1910 55 WP MM NOT_NAMED 1910-11-22 06:00:00 NR 15.2753 121.755 main 39 0 __________P___ -1 15.2753 121.755 4 17 283
1910326N13129 1910 55 WP MM NOT_NAMED 1910-11-22 09:00:00 NR 15.4228 120.999 main 0 0 __________P___ -1 15.4228 120.999 4 13 279
1910326N13129 1910 55 WP MM NOT_NAMED 1910-11-22 12:00:00 NR 15.4789 120.391 main 0 0 __________P___ -1 15.4789 120.391 4 12 274
1910326N13129 1910 55 WP MM NOT_NAMED 1910-11-22 15:00:00 NR 15.4949 119.809 main 15 15 __________P___ -1 15.4949 119.809 4 11 272
1910326N13129 1910 55 WP MM NOT_NAMED 1910-11-22 16:00:00 NR 15.5000 119.600 main 34 34 __________O___ -1 15.5000 119.600 4 15 274
1910326N13129 1910 55 WP MM NOT_NAMED 1910-11-22 18:00:00 NR 15.5427 119.044 main 93 93 __________P___ -1 15.5427 119.044 4 16 274
1910326N13129 1910 55 WP MM NOT_NAMED 1910-11-22 21:00:00 NR 15.5940 118.179 main 166 177 __________P___ -1 15.5940 118.179 4 17 273
1910326N13129 1910 55 WP MM NOT_NAMED 1910-11-23 00:00:00 NR 15.6376 117.324 main 260 260 __________P___ -1 15.6376 117.324 4 16 273
1910326N13129 1910 55 WP MM NOT_NAMED 1910-11-23 03:00:00 NR 15.6828 116.537 main 344 344 __________P___ -1 15.6828 116.537 4 15 274
1910326N13129 1910 55 WP MM NOT_NAMED 1910-11-23 04:00:00 NR 15.7000 116.300 main 365 365 __________O___ -1 15.7000 116.300 4 12 276
1910326N13129 1910 55 WP MM NOT_NAMED 1910-11-23 06:00:00 NR 15.7430 115.895 main 408 408 __________P___ -1 15.7430 115.895 4 11 277
1910326N13129 1910 55 WP MM NOT_NAMED 1910-11-23 09:00:00 NR 15.8148 115.370 main 460 471 __________P___ -1 15.8148 115.370 4 10 279
1910326N13129 1910 55 WP MM NOT_NAMED 1910-11-23 12:00:00 NR 15.8928 114.904 main 513 513 __________P___ -1 15.8928 114.904 4 9 280
1910326N13129 1910 55 WP MM NOT_NAMED 1910-11-23 15:00:00 NR 15.9733 114.454 main 527 510 __________P___ -1 15.9733 114.454 4 9 280
1910326N13129 1910 55 WP MM NOT_NAMED 1910-11-23 16:00:00 NR 16.0000 114.300 main 510 478 __________O___ -1 16.0000 114.300 4 9 280
1910326N13129 1910 55 WP MM NOT_NAMED 1910-11-23 18:00:00 NR 16.0526 113.979 main 478 438 __________P___ -1 16.0526 113.979 4 10 279
1910326N13129 1910 55 WP MM NOT_NAMED 1910-11-23 21:00:00 NR 16.1294 113.469 main 438 385 __________P___ -1 16.1294 113.469 4 10 279
1910326N13129 1910 55 WP MM NOT_NAMED 1910-11-24 00:00:00 NR 16.2039 112.934 main 385 342 __________P___ -1 16.2039 112.934 4 11 278
1910326N13129 1910 55 WP MM NOT_NAMED 1910-11-24 03:00:00 NR 16.2763 112.384 main 342 329 __________P___ -1 16.2763 112.384 4 11 278
1910326N13129 1910 55 WP MM NOT_NAMED 1910-11-24 04:00:00 NR 16.3000 112.200 main 329 __________O___ -1 16.3000 112.200 4 11 278

Digital Typhoon Data and Search

About IBTrACS Database

This database is a web-friendly format of International Best Track Archive for Climate Stewardship (IBTrACS), a global best track data archive curated by NOAA dating back to 1842.

Updated: 2021-12-03